createdAt,value
2023-03-26T00:01:25.035Z,99727.13
2023-03-26T00:03:55.232Z,99733.03
2023-03-26T00:06:24.502Z,99724.81
2023-03-26T00:08:52.596Z,99729.72
2023-03-26T00:11:21.590Z,99730.31
2023-03-26T00:13:48.578Z,99743.09
2023-03-26T00:16:17.924Z,99735.44
2023-03-26T00:18:44.635Z,99741.66
2023-03-26T00:21:14.881Z,99743.78
2023-03-26T00:23:42.356Z,99747.28
2023-03-26T00:26:10.762Z,99737.53
2023-03-26T00:28:42.230Z,99746.69
2023-03-26T00:31:14.803Z,99745.38
2023-03-26T00:33:41.930Z,99748.00
2023-03-26T00:36:11.958Z,99740.34
2023-03-26T00:38:39.274Z,99739.72
2023-03-26T00:41:17.553Z,99736.94
2023-03-26T00:43:46.654Z,99731.09
2023-03-26T00:46:13.263Z,99724.44
2023-03-26T00:48:45.510Z,99730.66
2023-03-26T00:51:17.469Z,99728.53
2023-03-26T00:53:46.263Z,99725.03
2023-03-26T00:56:13.247Z,99722.31
2023-03-26T00:58:40.258Z,99719.16
2023-03-26T01:01:10.551Z,99727.31
2023-03-26T01:03:38.644Z,99725.41
2023-03-26T01:06:12.779Z,99727.63
2023-03-26T01:08:50.415Z,99728.03
2023-03-26T01:11:16.882Z,99723.50
2023-03-26T01:13:47.762Z,99718.59
2023-03-26T01:16:23.323Z,99714.56
2023-03-26T01:18:52.682Z,99718.88
2023-03-26T01:21:22.628Z,99719.41
2023-03-26T01:23:59.931Z,99719.59
2023-03-26T01:26:44.129Z,99716.97
2023-03-26T01:29:39.463Z,99723.41
2023-03-26T01:32:37.714Z,99720.31
2023-03-26T01:35:36.205Z,99711.91
2023-03-26T01:38:24.528Z,99721.94
2023-03-26T01:41:04.822Z,99717.50
2023-03-26T01:43:44.097Z,99728.63
2023-03-26T01:46:13.142Z,99722.91
2023-03-26T01:48:41.368Z,99718.59
2023-03-26T01:51:09.806Z,99719.41
2023-03-26T01:53:43.866Z,99725.44
2023-03-26T01:56:29.466Z,99718.13
2023-03-26T01:58:58.869Z,99724.00
2023-03-26T02:01:49.367Z,99726.41
2023-03-26T02:04:54.523Z,99720.50
2023-03-26T02:07:38.018Z,99716.69
2023-03-26T02:10:27.781Z,99715.50
2023-03-26T02:12:54.773Z,99702.97
2023-03-26T02:15:21.566Z,99716.50
2023-03-26T02:17:49.514Z,99716.09
2023-03-26T02:21:06.273Z,99709.88
2023-03-26T02:23:35.870Z,99708.97
2023-03-26T02:26:06.472Z,99696.53
2023-03-26T02:28:33.152Z,99703.25
2023-03-26T02:31:01.826Z,99709.88
2023-03-26T02:33:29.054Z,99706.66
2023-03-26T02:35:59.381Z,99699.03
2023-03-26T02:38:26.720Z,99706.47
2023-03-26T02:40:54.479Z,99703.16
2023-03-26T02:43:21.344Z,99701.16
2023-03-26T02:45:47.944Z,99688.81
2023-03-26T02:48:15.197Z,99682.78
2023-03-26T02:50:42.490Z,99704.75
2023-03-26T02:53:09.427Z,99694.03
2023-03-26T02:55:35.975Z,99690.22
2023-03-26T02:58:02.461Z,99690.34
2023-03-26T03:00:29.057Z,99701.25
2023-03-26T03:02:58.019Z,99693.63
2023-03-26T03:05:28.865Z,99695.03
2023-03-26T03:07:58.082Z,99695.44
2023-03-26T03:10:26.301Z,99689.22
2023-03-26T03:12:53.281Z,99693.84
2023-03-26T03:15:20.470Z,99691.66
2023-03-26T03:17:47.493Z,99688.06
2023-03-26T03:20:14.094Z,99689.53
2023-03-26T03:22:41.232Z,99686.75
2023-03-26T03:25:17.478Z,99689.44
2023-03-26T03:27:44.577Z,99691.84
2023-03-26T03:30:13.290Z,99685.13
2023-03-26T03:32:39.817Z,99685.94
2023-03-26T03:35:07.404Z,99686.84
2023-03-26T03:37:33.908Z,99687.53
2023-03-26T03:40:00.365Z,99685.34
2023-03-26T03:42:27.638Z,99681.84
2023-03-26T03:44:54.271Z,99690.94
2023-03-26T03:47:22.834Z,99688.13
2023-03-26T03:49:50.009Z,99692.66
2023-03-26T03:52:17.968Z,99690.72
2023-03-26T03:54:44.523Z,99683.72
2023-03-26T03:57:11.088Z,99682.00
2023-03-26T03:59:37.561Z,99690.44
2023-03-26T04:02:03.993Z,99692.53
2023-03-26T04:04:30.654Z,99688.22
2023-03-26T04:06:57.168Z,99696.34
2023-03-26T04:09:23.638Z,99696.06
2023-03-26T04:11:51.084Z,99693.47
2023-03-26T04:14:17.559Z,99711.59
2023-03-26T04:16:44.034Z,99706.19
2023-03-26T04:19:10.477Z,99691.56
2023-03-26T04:21:37.803Z,99700.38
2023-03-26T04:24:05.286Z,99697.44
2023-03-26T04:26:31.944Z,99696.66
2023-03-26T04:29:05.639Z,99695.25
2023-03-26T04:31:34.050Z,99690.84
2023-03-26T04:34:07.607Z,99694.75
2023-03-26T04:36:35.461Z,99694.13
2023-03-26T04:39:05.001Z,99683.91
2023-03-26T04:41:32.443Z,99688.13
2023-03-26T04:44:01.797Z,99682.72
2023-03-26T04:46:28.656Z,99691.63
2023-03-26T04:48:55.573Z,99685.72
2023-03-26T04:51:27.055Z,99692.94
2023-03-26T04:54:07.176Z,99685.28
2023-03-26T04:56:43.473Z,99683.88
2023-03-26T04:59:30.427Z,99676.28
2023-03-26T05:01:59.134Z,99678.06
2023-03-26T05:04:26.664Z,99677.56
2023-03-26T05:06:53.962Z,99689.38
2023-03-26T05:09:20.623Z,99685.09
2023-03-26T05:11:48.181Z,99690.69
2023-03-26T05:14:14.654Z,99685.09
2023-03-26T05:16:41.388Z,99686.00
2023-03-26T05:19:08.947Z,99684.91
2023-03-26T05:21:35.787Z,99681.88
2023-03-26T05:24:02.598Z,99681.97
2023-03-26T05:26:29.563Z,99685.50
2023-03-26T05:28:56.846Z,99678.97
2023-03-26T05:31:23.479Z,99676.78
2023-03-26T05:33:50.210Z,99670.94
2023-03-26T05:36:17.283Z,99675.38
2023-03-26T05:38:47.751Z,99680.22
2023-03-26T05:41:14.291Z,99679.19
2023-03-26T05:43:41.391Z,99676.88
2023-03-26T05:46:08.128Z,99674.16
2023-03-26T05:48:34.950Z,99670.16
2023-03-26T05:51:01.616Z,99663.97
2023-03-26T05:53:28.232Z,99660.91
2023-03-26T05:55:58.413Z,99659.53
2023-03-26T05:58:26.717Z,99659.53
2023-03-26T06:01:18.105Z,99661.63
2023-03-26T06:04:12.580Z,99663.44
2023-03-26T06:06:39.367Z,99654.69
2023-03-26T06:09:06.615Z,99654.69
2023-03-26T06:11:33.120Z,99650.59
2023-03-26T06:14:00.603Z,99642.88
2023-03-26T06:16:27.945Z,99647.47
2023-03-26T06:18:56.703Z,99645.63
2023-03-26T06:21:27.620Z,99639.66
2023-03-26T06:23:54.518Z,99648.72
2023-03-26T06:26:21.444Z,99639.28
2023-03-26T06:28:48.221Z,99641.81
2023-03-26T06:31:14.811Z,99640.56
2023-03-26T06:33:41.326Z,99640.78
2023-03-26T06:36:08.250Z,99645.09
2023-03-26T06:38:34.887Z,99649.72
2023-03-26T06:41:06.173Z,99632.19
2023-03-26T06:43:33.855Z,99637.81
2023-03-26T06:46:03.999Z,99632.78
2023-03-26T06:48:30.862Z,99630.72
2023-03-26T06:50:57.740Z,99623.41
2023-03-26T06:53:24.214Z,99633.03
2023-03-26T06:55:50.909Z,99642.75
2023-03-26T06:58:17.367Z,99638.97
2023-03-26T07:00:44.026Z,99644.25
2023-03-26T07:03:11.405Z,99638.25
2023-03-26T07:05:40.550Z,99635.66
2023-03-26T07:08:06.958Z,99635.03
2023-03-26T07:10:33.602Z,99633.13
2023-03-26T07:13:00.024Z,99629.00
2023-03-26T07:15:28.845Z,99635.72
2023-03-26T07:17:56.353Z,99622.88
2023-03-26T07:20:23.811Z,99620.50
2023-03-26T07:23:20.556Z,99620.03
2023-03-26T07:25:48.672Z,99619.38
2023-03-26T07:28:25.799Z,99619.84
2023-03-26T07:31:04.549Z,99623.69
2023-03-26T07:33:38.811Z,99621.94
2023-03-26T07:36:26.500Z,99609.19
2023-03-26T07:39:30.790Z,99603.13
2023-03-26T07:42:09.822Z,99609.84
2023-03-26T07:45:03.106Z,99605.25
2023-03-26T07:47:33.924Z,99590.22
2023-03-26T07:50:00.918Z,99585.56
2023-03-26T07:52:28.244Z,99586.66
2023-03-26T07:54:55.759Z,99582.84
2023-03-26T07:57:47.483Z,99589.38
2023-03-26T08:00:22.148Z,99587.47
2023-03-26T08:03:10.482Z,99576.91
2023-03-26T08:05:47.048Z,99575.34
2023-03-26T08:08:25.701Z,99566.19
2023-03-26T08:11:14.586Z,99571.09
2023-03-26T08:14:01.092Z,99569.41
2023-03-26T08:16:36.454Z,99571.31
2023-03-26T08:19:21.087Z,99564.09
2023-03-26T08:22:06.904Z,99570.19
2023-03-26T08:24:43.629Z,99565.91
2023-03-26T08:27:21.452Z,99570.84
2023-03-26T08:30:03.497Z,99563.28
2023-03-26T08:34:20.991Z,99558.34
2023-03-26T08:36:47.645Z,99551.00
2023-03-26T08:39:14.212Z,99543.88
2023-03-26T08:41:46.839Z,99550.56
2023-03-26T08:44:32.075Z,99543.97
2023-03-26T08:47:29.034Z,99546.00
2023-03-26T08:50:07.909Z,99535.22
2023-03-26T08:52:34.353Z,99536.66
2023-03-26T08:55:19.440Z,99533.94
2023-03-26T08:58:14.132Z,99519.25
2023-03-26T09:00:41.130Z,99524.25
2023-03-26T09:03:35.542Z,99518.72
2023-03-26T09:06:31.764Z,99518.09
2023-03-26T09:09:19.588Z,99525.50
2023-03-26T09:12:14.189Z,99523.56
2023-03-26T09:15:23.782Z,99516.78
2023-03-26T09:17:54.438Z,99509.38
2023-03-26T09:20:34.052Z,99517.09
2023-03-26T09:23:16.048Z,99511.06
2023-03-26T09:25:56.550Z,99517.56
2023-03-26T09:28:23.236Z,99520.22
2023-03-26T09:31:15.775Z,99526.13
2023-03-26T09:34:00.289Z,99522.91
2023-03-26T09:36:45.370Z,99510.03
2023-03-26T09:39:52.191Z,99513.25
2023-03-26T09:42:52.348Z,99514.59
2023-03-26T09:45:22.578Z,99508.31
2023-03-26T09:48:05.635Z,99498.19
2023-03-26T09:50:59.821Z,99491.13
2023-03-26T09:54:11.301Z,99486.19
2023-03-26T09:57:15.096Z,99479.69
2023-03-26T10:00:16.896Z,99467.38
2023-03-26T10:03:02.212Z,99457.19
2023-03-26T10:05:48.054Z,99453.94
2023-03-26T10:08:31.719Z,99444.94
2023-03-26T10:11:13.712Z,99437.84
2023-03-26T10:13:54.044Z,99436.25
2023-03-26T10:16:51.887Z,99431.75
2023-03-26T10:19:37.815Z,99443.28
2023-03-26T10:22:14.502Z,99442.94
2023-03-26T10:25:05.096Z,99450.16
2023-03-26T10:27:51.557Z,99438.00
2023-03-26T10:30:31.622Z,99433.78
2023-03-26T10:33:09.384Z,99431.97
2023-03-26T10:35:52.770Z,99430.81
2023-03-26T10:38:47.261Z,99427.97
2023-03-26T10:41:23.493Z,99425.06
2023-03-26T10:44:22.780Z,99422.59
2023-03-26T10:47:16.769Z,99418.00
2023-03-26T10:50:08.210Z,99415.44
2023-03-26T10:52:39.696Z,99416.94
2023-03-26T10:55:24.294Z,99414.78
2023-03-26T10:58:13.360Z,99412.88
2023-03-26T11:00:46.582Z,99405.78
2023-03-26T11:03:43.725Z,99410.78
2023-03-26T11:06:19.606Z,99415.34
2023-03-26T11:09:04.691Z,99411.19
2023-03-26T11:11:48.916Z,99416.78
2023-03-26T11:14:47.803Z,99416.16
2023-03-26T11:17:40.477Z,99416.78
2023-03-26T11:20:25.306Z,99415.19
2023-03-26T11:23:14.592Z,99417.78
2023-03-26T11:25:50.908Z,99415.28
2023-03-26T11:28:32.641Z,99412.22
2023-03-26T11:31:04.767Z,99414.50
2023-03-26T11:33:37.206Z,99405.41
2023-03-26T11:36:08.825Z,99410.72
2023-03-26T11:38:40.134Z,99407.47
2023-03-26T11:41:23.070Z,99404.72
2023-03-26T11:43:56.377Z,99400.97
2023-03-26T11:46:25.352Z,99404.16
2023-03-26T11:49:09.259Z,99397.91
2023-03-26T11:51:37.017Z,99405.97
2023-03-26T11:54:05.325Z,99407.22
2023-03-26T11:57:04.558Z,99406.03
2023-03-26T11:59:55.888Z,99405.34
2023-03-26T12:02:37.825Z,99398.91
2023-03-26T12:05:20.339Z,99395.00
2023-03-26T12:07:53.593Z,99396.75
2023-03-26T12:10:39.245Z,99387.91
2023-03-26T12:13:37.237Z,99385.50
2023-03-26T12:16:14.306Z,99387.31
2023-03-26T12:18:43.804Z,99386.50
2023-03-26T12:21:19.338Z,99380.25
2023-03-26T12:23:56.844Z,99378.91
2023-03-26T12:26:35.256Z,99380.63
2023-03-26T12:29:09.663Z,99377.88
2023-03-26T12:31:46.806Z,99375.50
2023-03-26T12:34:16.825Z,99367.09
2023-03-26T12:37:00.003Z,99367.09
2023-03-26T12:40:09.079Z,99361.63
2023-03-26T12:44:50.336Z,99360.16
2023-03-26T12:45:23.895Z,99371.19
2023-03-26T12:47:59.727Z,99369.94
2023-03-26T12:50:44.930Z,99369.72
2023-03-26T12:53:23.975Z,99373.28
2023-03-26T12:56:01.232Z,99383.03
2023-03-26T12:58:58.652Z,99379.16
2023-03-26T13:01:37.306Z,99379.28
2023-03-26T13:04:28.774Z,99375.56
2023-03-26T13:07:04.395Z,99385.88
2023-03-26T13:09:56.618Z,99378.91
2023-03-26T13:12:46.187Z,99380.38
2023-03-26T13:15:35.611Z,99376.19
2023-03-26T13:18:21.577Z,99374.31
2023-03-26T13:21:14.714Z,99372.31
2023-03-26T13:23:53.515Z,99373.25
2023-03-26T13:26:38.812Z,99373.66
2023-03-26T13:29:23.815Z,99363.88
2023-03-26T13:32:20.315Z,99364.53
2023-03-26T13:35:18.120Z,99360.59
2023-03-26T13:38:06.960Z,99363.69
2023-03-26T13:40:46.561Z,99359.09
2023-03-26T13:43:28.181Z,99356.25
2023-03-26T13:46:28.736Z,99360.09
2023-03-26T13:49:15.535Z,99366.53
2023-03-26T13:51:48.454Z,99368.44
2023-03-26T13:54:27.584Z,99372.09
2023-03-26T13:57:05.483Z,99375.75
2023-03-26T13:59:40.229Z,99364.38
2023-03-26T14:02:18.154Z,99363.47
2023-03-26T14:04:49.503Z,99370.00
2023-03-26T14:07:24.759Z,99366.03
2023-03-26T14:09:58.757Z,99368.28
2023-03-26T14:12:51.440Z,99370.38
2023-03-26T14:15:27.090Z,99363.81
2023-03-26T14:18:03.521Z,99365.13
2023-03-26T14:21:19.439Z,99366.72
2023-03-26T14:23:51.924Z,99366.88
2023-03-26T14:26:40.388Z,99365.75
2023-03-26T14:29:28.095Z,99357.94
2023-03-26T14:32:24.801Z,99351.06
2023-03-26T14:35:26.003Z,99353.09
2023-03-26T14:38:35.354Z,99352.16
2023-03-26T14:41:24.992Z,99353.41
2023-03-26T14:44:29.573Z,99350.69
2023-03-26T14:47:20.535Z,99341.56
2023-03-26T14:49:55.363Z,99340.16
2023-03-26T14:52:31.550Z,99345.28
2023-03-26T14:55:03.617Z,99344.50
2023-03-26T14:57:52.467Z,99336.66
2023-03-26T15:01:03.811Z,99333.16
2023-03-26T15:03:51.202Z,99329.63
2023-03-26T15:06:55.344Z,99332.78
2023-03-26T15:09:49.004Z,99330.56
2023-03-26T15:12:51.508Z,99319.09
2023-03-26T15:15:36.309Z,99327.41
2023-03-26T15:18:21.629Z,99319.41
2023-03-26T15:21:18.967Z,99312.38
2023-03-26T15:24:16.298Z,99317.81
2023-03-26T15:27:01.648Z,99325.19
2023-03-26T15:29:28.073Z,99323.44
2023-03-26T15:32:16.255Z,99322.50
2023-03-26T15:35:37.641Z,99316.59
2023-03-26T15:38:42.453Z,99319.84
2023-03-26T15:41:27.801Z,99309.63
2023-03-26T15:44:22.830Z,99313.28
2023-03-26T15:47:30.651Z,99311.22
2023-03-26T15:50:15.631Z,99313.94
2023-03-26T15:52:53.912Z,99308.34
2023-03-26T15:55:53.692Z,99304.34
2023-03-26T15:58:30.785Z,99308.19
2023-03-26T16:01:25.449Z,99306.91
2023-03-26T16:04:09.267Z,99300.22
2023-03-26T16:06:41.586Z,99297.00
2023-03-26T16:09:20.204Z,99299.53
2023-03-26T16:11:54.813Z,99291.59
2023-03-26T16:14:36.322Z,99309.28
2023-03-26T16:17:06.493Z,99301.81
2023-03-26T16:19:46.067Z,99307.22
2023-03-26T16:22:42.826Z,99300.84
2023-03-26T16:25:28.670Z,99303.72
2023-03-26T16:28:10.681Z,99304.84
2023-03-26T16:30:37.632Z,99300.38
2023-03-26T16:33:19.377Z,99301.16
2023-03-26T16:36:26.058Z,99307.06
2023-03-26T16:39:19.781Z,99304.38
2023-03-26T16:42:06.079Z,99300.53
2023-03-26T16:44:41.127Z,99298.78
2023-03-26T16:47:42.929Z,99306.41
2023-03-26T16:50:33.051Z,99302.78
2023-03-26T16:53:34.673Z,99305.00
2023-03-26T16:56:15.660Z,99308.81
2023-03-26T16:59:00.381Z,99305.97
2023-03-26T17:01:27.373Z,99306.91
2023-03-26T17:04:05.131Z,99302.13
2023-03-26T17:06:45.692Z,99300.84
2023-03-26T17:09:21.238Z,99308.16
2023-03-26T17:11:59.864Z,99309.63
2023-03-26T17:14:48.928Z,99307.84
2023-03-26T17:17:37.432Z,99309.75
2023-03-26T17:20:25.254Z,99310.88
2023-03-26T17:23:09.240Z,99324.75
2023-03-26T17:25:40.472Z,99320.59
2023-03-26T17:28:28.274Z,99320.28
2023-03-26T17:31:16.400Z,99327.31
2023-03-26T17:33:43.280Z,99326.34
2023-03-26T17:36:12.743Z,99330.34
2023-03-26T17:38:39.219Z,99332.72
2023-03-26T17:41:07.009Z,99335.91
2023-03-26T17:43:50.756Z,99333.84
2023-03-26T17:46:25.679Z,99333.84
2023-03-26T17:49:00.964Z,99335.88
2023-03-26T17:51:38.774Z,99337.00
2023-03-26T17:58:07.673Z,99332.53
2023-03-26T18:00:47.088Z,99329.84
2023-03-26T18:03:34.149Z,99337.00
2023-03-26T18:06:07.949Z,99329.34
2023-03-26T18:08:50.677Z,99332.19
2023-03-26T18:11:29.263Z,99327.91
2023-03-26T18:14:01.938Z,99336.38
2023-03-26T18:16:39.503Z,99334.28
2023-03-26T18:19:22.619Z,99338.41
2023-03-26T18:21:54.322Z,99342.53
2023-03-26T18:24:32.789Z,99336.19
2023-03-26T18:27:10.746Z,99342.72
2023-03-26T18:29:44.694Z,99346.34
2023-03-26T18:32:11.683Z,99332.38
2023-03-26T18:34:45.956Z,99337.78
2023-03-26T18:37:21.049Z,99344.31
2023-03-26T18:39:58.979Z,99342.22
2023-03-26T18:42:27.193Z,99347.13
2023-03-26T18:44:54.699Z,99350.13
2023-03-26T18:47:29.174Z,99340.91
2023-03-26T18:49:57.525Z,99345.22
2023-03-26T18:52:27.179Z,99338.88
2023-03-26T18:54:54.660Z,99337.91
2023-03-26T18:57:25.122Z,99341.75
2023-03-26T18:59:54.329Z,99337.78
2023-03-26T19:02:22.093Z,99343.03
2023-03-26T19:04:50.817Z,99333.78
2023-03-26T19:07:24.903Z,99343.81
2023-03-26T19:09:56.285Z,99333.00
2023-03-26T19:12:24.100Z,99330.59
2023-03-26T19:15:02.654Z,99338.38
2023-03-26T19:17:34.715Z,99335.38
2023-03-26T19:20:01.610Z,99342.03
2023-03-26T19:22:30.315Z,99343.34
2023-03-26T19:25:02.163Z,99340.31
2023-03-26T19:27:28.915Z,99345.44
2023-03-26T19:29:55.438Z,99341.44
2023-03-26T19:32:34.578Z,99344.44
2023-03-26T19:35:03.996Z,99339.81
2023-03-26T19:37:31.440Z,99337.09
2023-03-26T19:40:30.133Z,99348.03
2023-03-26T19:42:59.897Z,99344.28
2023-03-26T19:45:26.995Z,99353.00
2023-03-26T19:48:07.374Z,99339.97
2023-03-26T19:50:52.608Z,99340.88
2023-03-26T19:53:19.090Z,99344.44
2023-03-26T19:56:11.405Z,99345.94
2023-03-26T19:58:38.078Z,99344.66
2023-03-26T20:01:04.751Z,99343.38
2023-03-26T20:03:42.947Z,99345.41
2023-03-26T20:06:14.972Z,99340.63
2023-03-26T20:08:41.545Z,99333.59
2023-03-26T20:11:16.594Z,99346.00
2023-03-26T20:13:43.099Z,99340.69
2023-03-26T20:16:25.751Z,99337.69
2023-03-26T20:18:52.787Z,99336.09
2023-03-26T20:21:19.513Z,99345.63
2023-03-26T20:23:45.948Z,99338.78
2023-03-26T20:26:16.576Z,99345.00
2023-03-26T20:28:48.075Z,99343.72
2023-03-26T20:31:22.016Z,99335.91
2023-03-26T20:33:52.990Z,99333.06
2023-03-26T20:36:34.287Z,99336.13
2023-03-26T20:39:07.835Z,99339.13
2023-03-26T20:41:35.643Z,99333.25
2023-03-26T20:44:04.859Z,99338.53
2023-03-26T20:46:31.953Z,99344.19
2023-03-26T20:48:59.753Z,99347.50
2023-03-26T20:51:28.188Z,99350.72
2023-03-26T20:53:55.915Z,99349.31
2023-03-26T20:56:22.691Z,99350.91
2023-03-26T20:58:54.747Z,99347.72
2023-03-26T21:01:27.757Z,99348.56
2023-03-26T21:03:54.799Z,99349.88
2023-03-26T21:06:21.302Z,99352.88
2023-03-26T21:08:47.957Z,99352.44
2023-03-26T21:11:26.506Z,99352.00
2023-03-26T21:14:06.725Z,99354.91
2023-03-26T21:16:33.669Z,99352.06
2023-03-26T21:19:00.893Z,99360.88
2023-03-26T21:21:39.799Z,99367.25
2023-03-26T21:24:12.708Z,99362.94
2023-03-26T21:26:56.243Z,99368.38
2023-03-26T21:29:22.933Z,99368.81
2023-03-26T21:31:51.091Z,99364.81
2023-03-26T21:34:19.916Z,99365.91
2023-03-26T21:36:47.039Z,99372.56
2023-03-26T21:39:15.315Z,99374.47
2023-03-26T21:41:46.966Z,99376.66
2023-03-26T21:44:14.424Z,99380.19
2023-03-26T21:46:45.476Z,99386.88
2023-03-26T21:49:13.326Z,99384.78
2023-03-26T21:51:40.854Z,99380.31
2023-03-26T21:54:25.921Z,99395.50
2023-03-26T21:57:29.058Z,99395.25
2023-03-26T22:00:08.456Z,99398.09
2023-03-26T22:02:47.064Z,99401.38
2023-03-26T22:05:25.880Z,99404.53
2023-03-26T22:08:02.863Z,99405.34
2023-03-26T22:10:30.971Z,99410.25
2023-03-26T22:12:58.445Z,99415.75
2023-03-26T22:15:26.734Z,99421.44
2023-03-26T22:17:56.000Z,99415.06
2023-03-26T22:20:24.949Z,99415.94
2023-03-26T22:22:53.310Z,99434.66
2023-03-26T22:25:20.911Z,99434.97
2023-03-26T22:27:49.860Z,99439.09
2023-03-26T22:30:17.587Z,99438.00
2023-03-26T22:32:44.909Z,99448.00
2023-03-26T22:35:12.977Z,99441.38
2023-03-26T22:37:40.534Z,99451.28
2023-03-26T22:40:10.424Z,99464.50
2023-03-26T22:42:37.202Z,99465.81
2023-03-26T22:45:04.655Z,99468.69
2023-03-26T22:47:33.660Z,99469.31
2023-03-26T22:50:01.059Z,99476.69
2023-03-26T22:52:28.318Z,99473.91
2023-03-26T22:54:55.118Z,99479.69
2023-03-26T22:57:22.849Z,99480.19
2023-03-26T22:59:49.750Z,99489.09
2023-03-26T23:02:17.990Z,99497.41
2023-03-26T23:04:44.835Z,99506.19
2023-03-26T23:07:11.823Z,99505.47
2023-03-26T23:09:38.523Z,99509.88
2023-03-26T23:12:05.485Z,99524.75
2023-03-26T23:14:36.284Z,99530.91
2023-03-26T23:17:02.981Z,99539.09
2023-03-26T23:19:30.175Z,99536.78
2023-03-26T23:21:57.592Z,99541.75
2023-03-26T23:24:26.486Z,99538.13
2023-03-26T23:26:53.403Z,99543.66
2023-03-26T23:29:20.106Z,99550.97
2023-03-26T23:31:46.975Z,99560.34
2023-03-26T23:34:14.269Z,99573.84
2023-03-26T23:36:41.934Z,99573.66
2023-03-26T23:39:09.294Z,99583.66
2023-03-26T23:41:36.892Z,99579.88
2023-03-26T23:44:04.115Z,99590.91
2023-03-26T23:46:33.121Z,99593.53
2023-03-26T23:49:02.448Z,99601.41
2023-03-26T23:51:32.744Z,99598.13
2023-03-26T23:54:00.287Z,99605.34
2023-03-26T23:56:30.376Z,99615.06
2023-03-26T23:58:58.220Z,99611.25
